Terminal Aerodrome Forecast
Issued by NWS

Home | Current Version | Previous Version | Text Only | Print | Product List | Glossary On
Versions: 1 2 3 4 5 6 7 8 9 10 11 12 13 14 15 16
000
FTUS43 KICT 141140
TAFCNU
TAF
KCNU 141140Z 1412/1512 19007KT P6SM BKN200
     FM141600 19015G25KT P6SM BKN200
     FM142200 20015G25KT P6SM VCTS SCT050CB BKN100
      TEMPO 1423/1502 3SM TSRA BKN050CB
     FM150200 31018G28KT P6SM VCTS OVC060CB
     FM150400 33018G25KT P6SM OVC080=

USA.gov is the U.S. government's official web portal to all federal, state and local government web resources and services.